| time (UTC) | temp C | wind direction | speed KPH | gust KPH | rain 1hr cm | rain 24hr cm | rain mn cm | humidity % | barometer mb |
| 20260502181525 | 22 | 203 | 1.6 | 16.1 | 0.00 | 5.28 | 0.03 | 45 | 1020.2 |
| 20260502163019 | 20 | 130 | 6.4 | 14.5 | 0.03 | 7.49 | 0.03 | 57 | 1020.5 |
| 20260502161517 | 20 | 257 | 0.0 | 16.1 | 0.00 | 7.47 | 0.00 | 62 | 1020.4 |
| 20260502151519 | 18 | 50 | 3.2 | 16.1 | 0.00 | 7.54 | 0.00 | 72 | 1020.2 |
| 20260502123029 | -17 | 0.0 | 0.0 | 0.00 | 7.59 | 0.00 | 1018.4 | ||
| 20260502121522 | -17 | 0.0 | 0.0 | 0.00 | 7.59 | 0.00 | 1018.1 | ||
| 20260502114531 | -17 | 0.0 | 0.0 | 0.00 | 7.59 | 0.00 | 1017.9 | ||
| 20260502113025 | -17 | 0.0 | 0.0 | 0.00 | 7.59 | 0.00 | 1017.7 | ||
| 20260502111526 | -17 | 0.0 | 0.0 | 0.00 | 7.59 | 0.00 | 1017.7 | ||
| 20260502110026 | -17 | 0.0 | 0.0 | 0.00 | 7.59 | 0.00 | 1017.6 | ||
| 20260502104526 | -17 | 0.0 | 0.0 | 0.00 | 7.59 | 0.00 | 1017.4 | ||
| 20260502103023 | -17 | 0.0 | 0.0 | 0.00 | 7.59 | 0.00 | 1017.1 | ||
| 20260502101524 | -17 | 0.0 | 0.0 | 0.00 | 7.59 | 0.00 | 1016.8 | ||
| 20260502091523 | -17 | 0.0 | 0.0 | 0.00 | 7.59 | 0.00 | 1015.9 | ||
| 20260502071524 | -17 | 0.0 | 0.0 | 0.00 | 7.59 | 0.00 | 1015.8 | ||
| 20260502070029 | -17 | 0.0 | 0.0 | 0.00 | 7.59 | 0.00 | 1015.6 | ||
| 20260502064541 | -17 | 0.0 | 0.0 | 0.00 | 7.59 | 0.00 | 1015.5 | ||
| 20260502063028 | -17 | 0.0 | 0.0 | 0.00 | 7.59 | 0.00 | 1015.3 | ||
| 20260502061530 | -17 | 0.0 | 0.0 | 0.00 | 7.59 | 0.00 | 1015.2 | ||
| 20260502060035 | -17 | 0.0 | 0.0 | 0.00 | 7.59 | 0.00 | 1015.3 | ||
| 20260502054529 | -17 | 0.0 | 0.0 | 0.00 | 7.59 | 0.00 | 1015.4 | ||
| 20260502053029 | 11 | 3.2 | 12.9 | 0.00 | 7.62 | 0.00 | 67 | 1015.6 | |
| 20260502051532 | 12 | 14 | 3.2 | 12.9 | 0.03 | 7.62 | 0.00 | 67 | 1015.6 |
| 20260502050026 | 12 | 283 | 4.8 | 14.5 | 0.03 | 7.62 | 0.00 | 67 | 1015.5 |
| 20260502044514 | 12 | 317 | 1.6 | 9.7 | 0.05 | 7.62 | 7.62 | 67 | 1015.5 |
| 20260502043019 | 12 | 1 | 1.6 | 14.5 | 0.05 | 7.62 | 7.62 | 67 | 1015.5 |
| 20260502041532 | 12 | 136 | 3.2 | 11.3 | 0.03 | 7.59 | 7.59 | 67 | 1015.5 |
| 20260502040024 | 13 | 36 | 1.6 | 16.1 | 0.03 | 7.59 | 7.59 | 67 | 1015.4 |
| 20260502034511 | 13 | 279 | 1.6 | 6.4 | 0.03 | 7.57 | 7.57 | 67 | 1014.9 |
| 20260502033025 | 13 | 5 | 0.0 | 8.0 | 0.08 | 7.57 | 7.57 | 67 | 1014.6 |
| 20260502031520 | 13 | 101 | 1.6 | 16.1 | 0.08 | 7.59 | 7.57 | 67 | 1014.0 |
| 20260502030023 | 13 | 53 | 1.6 | 12.9 | 0.10 | 7.59 | 7.57 | 67 | 1013.3 |
| 20260502024531 | 13 | 75 | 3.2 | 12.9 | 0.10 | 7.57 | 7.54 | 67 | 1013.6 |
| 20260502023011 | 14 | 144 | 0.0 | 11.3 | 0.08 | 7.52 | 7.49 | 67 | 1013.5 |
| 20260502021518 | 14 | 244 | 1.6 | 8.0 | 0.15 | 7.52 | 7.49 | 67 | 1013.7 |
| 20260502020020 | 14 | 208 | 0.0 | 17.7 | 0.15 | 7.49 | 7.47 | 67 | 1013.5 |
| 20260502014525 | 14 | 78 | 0.0 | 4.8 | 0.18 | 7.47 | 7.44 | 67 | 1013.2 |
| 20260502013026 | 14 | 314 | 0.0 | 9.7 | 0.30 | 7.47 | 7.42 | 67 | 1012.8 |
| 20260502011515 | 14 | 204 | 1.6 | 11.3 | 0.43 | 7.39 | 7.34 | 67 | 1012.6 |
| 20260502010025 | 14 | 342 | 0.0 | 8.0 | 0.56 | 7.42 | 7.32 | 67 | 1011.3 |
| 20260502004530 | 14 | 269 | 3.2 | 8.0 | 0.51 | 7.44 | 7.26 | 67 | 1011.0 |
| 20260502003024 | 14 | 335 | 3.2 | 11.3 | 0.36 | 7.34 | 7.11 | 67 | 1011.5 |
| 20260502001528 | 14 | 28 | 1.6 | 11.3 | 0.20 | 7.14 | 6.91 | 67 | 1011.1 |
| 20260502000019 | 15 | 350 | 4.8 | 17.7 | 0.05 | 6.99 | 6.76 | 67 | 1010.9 |
| 20260501234520 | 15 | 46 | 6.4 | 16.1 | 0.05 | 7.01 | 6.76 | 67 | 1010.8 |
| 20260501233022 | 15 | 336 | 1.6 | 11.3 | 0.08 | 7.01 | 6.76 | 66 | 1010.1 |
| 20260501231528 | 15 | 339 | 4.8 | 12.9 | 0.03 | 6.96 | 6.71 | 66 | 1010.2 |
| 20260501230028 | 15 | 321 | 3.2 | 11.3 | 0.03 | 6.96 | 6.71 | 66 | 1009.9 |
| 20260501224517 | 15 | 51 | 0.0 | 6.4 | 0.03 | 6.96 | 6.71 | 66 | 1010.7 |
| 20260501223023 | 15 | 6 | 3.2 | 12.9 | 0.15 | 6.93 | 6.68 | 66 | 1010.4 |
| 20260501221525 | 15 | 39 | 1.6 | 12.9 | 0.38 | 6.93 | 6.68 | 66 | 1010.8 |
| 20260501220035 | 16 | 20 | 3.2 | 11.3 | 0.66 | 6.93 | 6.68 | 66 | 1011.1 |
| 20260501214530 | 16 | 29 | 0.0 | 4.8 | 0.97 | 6.93 | 6.68 | 66 | 1011.0 |
| 20260501213019 | 16 | 81 | 0.0 | 14.5 | 0.91 | 6.78 | 6.53 | 66 | 1009.7 |
| 20260501211524 | 16 | 65 | 1.6 | 12.9 | 0.81 | 6.55 | 6.30 | 66 | 1010.0 |
| 20260501210026 | 16 | 308 | 1.6 | 8.0 | 1.75 | 6.27 | 5.99 | 66 | 1010.0 |
| 20260501204541 | 16 | 306 | 0.0 | 9.7 | 1.73 | 5.94 | 5.71 | 66 | 1010.2 |
| 20260501203030 | 16 | 236 | 0.0 | 0.0 | 3.07 | 5.87 | 5.61 | 66 | 1009.5 |
| 20260501201518 | 16 | 134 | 0.0 | 8.0 | 2.97 | 5.74 | 5.49 | 66 | 1008.9 |
| 20260501200024 | 16 | 238 | 3.2 | 8.0 | 1.80 | 4.52 | 4.27 | 66 | 1009.2 |
| 20260501194527 | 16 | 72 | 0.0 | 6.4 | 1.63 | 4.24 | 3.99 | 66 | 1009.5 |
| 20260501193026 | 16 | 227 | 0.0 | 11.3 | 0.18 | 2.79 | 2.54 | 66 | 1009.8 |
| 20260501191534 | 16 | 288 | 3.2 | 8.0 | 0.15 | 2.74 | 2.49 | 66 | 1008.7 |
| 20260501190022 | 16 | 316 | 0.0 | 9.7 | 0.13 | 2.72 | 2.46 | 66 | 1009.9 |
| 20260501184540 | 16 | 108 | 0.0 | 4.8 | 0.03 | 2.62 | 2.36 | 66 | 1010.5 |
| 20260501183035 | 16 | 338 | 3.2 | 11.3 | 0.03 | 2.62 | 2.36 | 66 | 1009.1 |